createdAt,value
2018-09-24T00:00:43.045Z,100376.55
2018-09-24T00:03:10.610Z,100381.67
2018-09-24T00:05:38.196Z,100378.41
2018-09-24T00:08:05.743Z,100392.41
2018-09-24T00:10:33.270Z,100395.08
2018-09-24T00:13:00.828Z,100398.45
2018-09-24T00:15:28.366Z,100408.53
2018-09-24T00:17:55.940Z,100408.05
2018-09-24T00:20:23.611Z,100413.25
2018-09-24T00:22:51.220Z,100417.63
2018-09-24T00:25:18.991Z,100419.00
2018-09-24T00:27:46.621Z,100428.06
2018-09-24T00:30:14.167Z,100428.92
2018-09-24T00:32:41.746Z,100434.05
2018-09-24T00:35:09.276Z,100438.84
2018-09-24T00:37:36.778Z,100434.17
2018-09-24T00:40:04.348Z,100442.35
2018-09-24T00:42:31.936Z,100450.11
2018-09-24T00:44:59.496Z,100450.48
2018-09-24T00:47:27.064Z,100455.50
2018-09-24T00:49:54.647Z,100454.88
2018-09-24T00:52:22.160Z,100462.73
2018-09-24T00:54:49.727Z,100468.72
2018-09-24T00:57:17.279Z,100473.86
2018-09-24T00:59:44.822Z,100466.02
2018-09-24T01:02:12.376Z,100474.97
2018-09-24T01:04:39.904Z,100478.58
2018-09-24T01:07:07.464Z,100484.13
2018-09-24T01:09:34.970Z,100489.38
2018-09-24T01:12:02.552Z,100502.73
2018-09-24T01:14:30.117Z,100505.47
2018-09-24T01:16:57.678Z,100497.97
2018-09-24T01:19:25.221Z,100517.36
2018-09-24T01:21:52.849Z,100516.97
2018-09-24T01:24:20.372Z,100526.18
2018-09-24T01:26:47.922Z,100529.14
2018-09-24T01:29:15.487Z,100535.63
2018-09-24T01:31:43.023Z,100537.02
2018-09-24T01:34:10.592Z,100541.22
2018-09-24T01:36:38.147Z,100552.58
2018-09-24T01:39:05.773Z,100552.91
2018-09-24T01:41:33.430Z,100556.73
2018-09-24T01:44:00.992Z,100565.97
2018-09-24T01:46:28.513Z,100566.72
2018-09-24T01:48:56.132Z,100570.44
2018-09-24T01:51:24.812Z,100573.11
2018-09-24T01:53:52.324Z,100568.06
2018-09-24T01:56:19.907Z,100566.41
2018-09-24T01:58:47.447Z,100572.20
2018-09-24T02:01:18.365Z,100576.70
2018-09-24T02:03:45.919Z,100581.33
2018-09-24T02:06:13.529Z,100586.23
2018-09-24T02:08:41.112Z,100583.54
2018-09-24T02:11:08.780Z,100583.03
2018-09-24T02:13:36.365Z,100594.83
2018-09-24T02:16:03.944Z,100591.55
2018-09-24T02:18:31.473Z,100593.89
2018-09-24T02:20:59.035Z,100590.66
2018-09-24T02:23:26.582Z,100587.06
2018-09-24T02:25:54.168Z,100593.24
2018-09-24T02:28:21.747Z,100600.70
2018-09-24T02:30:49.381Z,100605.12
2018-09-24T02:33:16.916Z,100610.95
2018-09-24T02:35:44.451Z,100616.84
2018-09-24T02:38:11.982Z,100618.09
2018-09-24T02:40:39.552Z,100626.44
2018-09-24T02:43:07.058Z,100634.27
2018-09-24T02:45:34.627Z,100630.83
2018-09-24T02:48:02.163Z,100635.84
2018-09-24T02:50:29.736Z,100634.63
2018-09-24T02:52:57.276Z,100639.88
2018-09-24T02:55:24.834Z,100642.57
2018-09-24T02:57:52.357Z,100649.67
2018-09-24T03:00:19.957Z,100651.14
2018-09-24T03:02:47.478Z,100652.83
2018-09-24T03:05:15.069Z,100665.34
2018-09-24T03:07:42.589Z,100666.05
2018-09-24T03:10:10.437Z,100670.63
2018-09-24T03:12:37.970Z,100671.73
2018-09-24T03:15:05.547Z,100679.61
2018-09-24T03:17:33.068Z,100682.25
2018-09-24T03:20:00.591Z,100682.00
2018-09-24T03:22:42.820Z,100675.77
2018-09-24T03:25:10.402Z,100678.11
2018-09-24T03:27:37.981Z,100688.15
2018-09-24T03:30:05.578Z,100682.82
2018-09-24T03:32:33.147Z,100688.97
2018-09-24T03:35:00.692Z,100686.66
2018-09-24T03:37:28.239Z,100689.28
2018-09-24T03:39:55.816Z,100690.05
2018-09-24T03:42:23.338Z,100691.41
2018-09-24T03:44:50.926Z,100692.44
2018-09-24T03:47:18.497Z,100698.92
2018-09-24T03:49:46.033Z,100694.14
2018-09-24T03:52:13.602Z,100702.19
2018-09-24T03:54:41.176Z,100697.77
2018-09-24T03:57:10.674Z,100704.97
2018-09-24T03:59:38.259Z,100708.77
2018-09-24T04:02:05.798Z,100709.88
2018-09-24T04:04:38.832Z,100721.87
2018-09-24T04:07:11.926Z,100720.82
2018-09-24T04:09:45.007Z,100725.02
2018-09-24T04:12:18.026Z,100730.56
2018-09-24T04:14:50.994Z,100733.95
2018-09-24T04:17:24.078Z,100738.48
2018-09-24T04:19:57.127Z,100732.98
2018-09-24T04:22:30.157Z,100738.41
2018-09-24T04:25:03.262Z,100747.72
2018-09-24T04:27:36.451Z,100747.06
2018-09-24T04:30:09.520Z,100764.30
2018-09-24T04:32:42.625Z,100775.11
2018-09-24T04:35:15.806Z,100771.95
2018-09-24T04:37:48.787Z,100770.64
2018-09-24T04:40:22.009Z,100779.91
2018-09-24T04:42:55.021Z,100779.05
2018-09-24T04:45:32.250Z,100781.98
2018-09-24T04:48:05.449Z,100781.67
2018-09-24T04:50:38.498Z,100778.41
2018-09-24T04:53:11.702Z,100785.94
2018-09-24T04:55:44.759Z,100789.14
2018-09-24T04:58:17.702Z,100788.52
2018-09-24T05:00:50.924Z,100783.63
2018-09-24T05:03:24.091Z,100794.17
2018-09-24T05:05:57.033Z,100795.82
2018-09-24T05:08:32.354Z,100801.98
2018-09-24T05:11:05.557Z,100807.56
2018-09-24T05:13:38.609Z,100810.11
2018-09-24T05:16:11.816Z,100822.81
2018-09-24T05:18:47.024Z,100820.81
2018-09-24T05:21:20.221Z,100824.61
2018-09-24T05:23:53.210Z,100824.49
2018-09-24T05:26:26.434Z,100828.59
2018-09-24T05:28:59.506Z,100827.17
2018-09-24T05:31:32.506Z,100829.93
2018-09-24T05:34:05.578Z,100830.04
2018-09-24T05:36:38.594Z,100836.87
2018-09-24T05:39:11.625Z,100831.85
2018-09-24T05:41:44.745Z,100843.91
2018-09-24T05:44:17.792Z,100849.19
2018-09-24T05:46:52.123Z,100851.13
2018-09-24T05:49:25.297Z,100850.13
2018-09-24T05:51:58.464Z,100858.41
2018-09-24T05:54:35.549Z,100865.86
2018-09-24T05:57:08.549Z,100866.13
2018-09-24T05:59:41.726Z,100877.02
2018-09-24T06:02:14.852Z,100877.63
2018-09-24T06:04:47.957Z,100882.22
2018-09-24T06:07:21.179Z,100880.83
2018-09-24T06:09:58.099Z,100889.06
2018-09-24T06:12:31.145Z,100894.19
2018-09-24T06:15:04.231Z,100897.23
2018-09-24T06:17:37.265Z,100900.72
2018-09-24T06:20:20.183Z,100903.47
2018-09-24T06:22:53.305Z,100913.44
2018-09-24T06:25:26.523Z,100922.48
2018-09-24T06:27:59.706Z,100931.04
2018-09-24T06:30:32.737Z,100928.87
2018-09-24T06:33:05.946Z,100935.10
2018-09-24T06:35:38.961Z,100937.05
2018-09-24T06:38:15.778Z,100936.89
2018-09-24T06:40:48.859Z,100943.09
2018-09-24T06:43:22.105Z,100939.86
2018-09-24T06:45:55.192Z,100942.84
2018-09-24T06:48:28.274Z,100948.59
2018-09-24T06:51:01.412Z,100948.70
2018-09-24T06:53:34.632Z,100951.09
2018-09-24T06:56:07.699Z,100950.20
2018-09-24T06:58:40.774Z,100955.34
2018-09-24T07:01:14.174Z,100961.91
2018-09-24T07:03:47.353Z,100967.44
2018-09-24T07:06:20.395Z,100968.59
2018-09-24T07:08:53.816Z,100972.78
2018-09-24T07:11:27.130Z,100974.91
2018-09-24T07:14:00.501Z,100975.86
2018-09-24T07:16:33.617Z,100980.59
2018-09-24T07:19:06.748Z,100987.14
2018-09-24T07:21:40.857Z,100988.81
2018-09-24T07:24:15.270Z,100998.33
2018-09-24T07:26:48.420Z,100997.59
2018-09-24T07:29:21.652Z,101000.69
2018-09-24T07:31:54.944Z,100997.84
2018-09-24T07:34:28.118Z,101004.64
2018-09-24T07:37:01.238Z,101007.64
2018-09-24T07:39:34.427Z,101011.70
2018-09-24T07:42:08.688Z,101011.89
2018-09-24T07:44:41.951Z,101015.97
2018-09-24T07:47:15.249Z,101020.10
2018-09-24T07:49:48.371Z,101021.28
2018-09-24T07:52:22.497Z,101031.83
2018-09-24T07:54:55.516Z,101029.58
2018-09-24T07:57:28.631Z,101028.09
2018-09-24T08:00:01.645Z,101036.42
2018-09-24T08:02:34.777Z,101038.60
2018-09-24T08:05:07.901Z,101042.08
2018-09-24T08:07:41.188Z,101045.55
2018-09-24T08:10:14.447Z,101054.30
2018-09-24T08:12:47.773Z,101059.70
2018-09-24T08:15:21.125Z,101071.86
2018-09-24T08:17:54.367Z,101069.95
2018-09-24T08:20:27.827Z,101077.45
2018-09-24T08:23:02.159Z,101085.70
2018-09-24T08:25:35.446Z,101079.84
2018-09-24T08:28:08.681Z,101082.84
2018-09-24T08:30:41.712Z,101084.73
2018-09-24T08:33:15.991Z,101094.50
2018-09-24T08:35:49.330Z,101101.61
2018-09-24T08:38:22.422Z,101095.05
2018-09-24T08:40:55.485Z,101097.67
2018-09-24T08:43:28.642Z,101099.19
2018-09-24T08:46:01.806Z,101110.31
2018-09-24T08:48:34.930Z,101110.54
2018-09-24T08:51:08.111Z,101107.31
2018-09-24T08:53:41.215Z,101114.08
2018-09-24T08:56:14.326Z,101119.48
2018-09-24T08:58:47.520Z,101117.53
2018-09-24T09:01:20.615Z,101113.97
2018-09-24T09:03:53.905Z,101122.02
2018-09-24T09:06:26.825Z,101114.09
2018-09-24T09:09:00.000Z,101114.70
2018-09-24T09:11:33.095Z,101118.79
2018-09-24T09:14:06.305Z,101111.77
2018-09-24T09:16:39.349Z,101118.30
2018-09-24T09:19:12.535Z,101117.91
2018-09-24T09:21:45.697Z,101123.15
2018-09-24T09:24:19.055Z,101127.83
2018-09-24T09:26:52.201Z,101127.66
2018-09-24T09:29:25.283Z,101123.18
2018-09-24T09:31:58.275Z,101128.77
2018-09-24T09:34:31.372Z,101131.84
2018-09-24T09:37:04.463Z,101133.89
2018-09-24T09:39:37.712Z,101145.75
2018-09-24T09:42:10.682Z,101146.38
2018-09-24T09:44:43.931Z,101149.50
2018-09-24T09:47:16.989Z,101142.73
2018-09-24T09:49:50.181Z,101153.98
2018-09-24T09:52:23.151Z,101155.85
2018-09-24T09:54:56.187Z,101149.77
2018-09-24T09:57:29.358Z,101150.86
2018-09-24T10:00:02.536Z,101154.58
2018-09-24T10:02:35.872Z,101158.53
2018-09-24T10:05:09.009Z,101148.28
2018-09-24T10:07:42.195Z,101156.29
2018-09-24T10:10:15.285Z,101152.00
2018-09-24T10:12:48.480Z,101158.30
2018-09-24T10:15:21.406Z,101144.61
2018-09-24T10:17:54.538Z,101133.45
2018-09-24T10:20:27.807Z,101134.58
2018-09-24T10:23:00.956Z,101132.64
2018-09-24T10:25:34.187Z,101141.97
2018-09-24T10:28:07.266Z,101144.08
2018-09-24T10:30:40.279Z,101138.78
2018-09-24T10:33:13.560Z,101139.94
2018-09-24T10:35:46.581Z,101135.75
2018-09-24T10:38:19.817Z,101140.00
2018-09-24T10:40:52.679Z,101138.61
2018-09-24T10:43:25.904Z,101136.55
2018-09-24T10:45:59.027Z,101149.20
2018-09-24T10:48:32.182Z,101142.34
2018-09-24T10:51:05.195Z,101142.25
2018-09-24T10:53:38.432Z,101144.50
2018-09-24T10:56:11.493Z,101146.00
2018-09-24T10:58:44.596Z,101143.59
2018-09-24T11:01:17.635Z,101146.70
2018-09-24T11:03:50.821Z,101148.97
2018-09-24T11:06:24.306Z,101150.97
2018-09-24T11:08:57.325Z,101152.25
2018-09-24T11:11:30.395Z,101149.37
2018-09-24T11:14:03.592Z,101150.44
2018-09-24T11:16:36.880Z,101151.63
2018-09-24T11:19:09.920Z,101162.78
2018-09-24T11:21:43.091Z,101161.34
2018-09-24T11:24:16.327Z,101174.68
2018-09-24T11:26:49.752Z,101168.86
2018-09-24T11:29:22.825Z,101168.41
2018-09-24T11:31:56.207Z,101164.80
2018-09-24T11:34:29.660Z,101165.34
2018-09-24T11:37:03.011Z,101159.69
2018-09-24T11:39:36.311Z,101163.21
2018-09-24T11:42:09.646Z,101163.04
2018-09-24T11:44:42.969Z,101155.53
2018-09-24T11:47:16.139Z,101158.52
2018-09-24T11:49:49.446Z,101156.97
2018-09-24T11:52:22.622Z,101155.48
2018-09-24T11:54:56.162Z,101159.27
2018-09-24T11:57:29.764Z,101159.31
2018-09-24T12:00:03.001Z,101156.66
2018-09-24T12:02:36.310Z,101148.30
2018-09-24T12:05:09.541Z,101156.13
2018-09-24T12:07:42.715Z,101158.36
2018-09-24T12:10:15.955Z,101153.86
2018-09-24T12:12:49.135Z,101144.56
2018-09-24T12:15:22.445Z,101149.17
2018-09-24T12:17:55.988Z,101154.66
2018-09-24T12:20:29.098Z,101152.49
2018-09-24T12:23:02.481Z,101149.22
2018-09-24T12:25:35.852Z,101140.17
2018-09-24T12:28:09.092Z,101142.11
2018-09-24T12:30:42.222Z,101139.31
2018-09-24T12:33:15.269Z,101134.03
2018-09-24T12:35:48.278Z,101122.22
2018-09-24T12:38:21.718Z,101129.77
2018-09-24T12:40:54.776Z,101138.73
2018-09-24T12:43:28.022Z,101140.09
2018-09-24T12:46:01.180Z,101144.79
2018-09-24T12:48:34.356Z,101159.63
2018-09-24T12:51:07.414Z,101164.45
2018-09-24T12:53:40.541Z,101174.88
2018-09-24T12:56:13.621Z,101172.48
2018-09-24T12:58:46.777Z,101170.12
2018-09-24T13:01:20.027Z,101176.65
2018-09-24T13:03:53.051Z,101179.61
2018-09-24T13:06:26.342Z,101175.44
2018-09-24T13:08:59.282Z,101182.83
2018-09-24T13:11:32.439Z,101180.83
2018-09-24T13:14:05.478Z,101180.16
2018-09-24T13:16:38.543Z,101177.38
2018-09-24T13:19:12.031Z,101171.27
2018-09-24T13:21:45.098Z,101171.05
2018-09-24T13:24:20.371Z,101165.59
2018-09-24T13:26:53.682Z,101166.55
2018-09-24T13:29:26.935Z,101170.98
2018-09-24T13:32:00.248Z,101165.27
2018-09-24T13:34:33.347Z,101166.02
2018-09-24T13:37:06.374Z,101166.28
2018-09-24T13:39:39.606Z,101160.81
2018-09-24T13:42:12.620Z,101163.56
2018-09-24T13:44:45.881Z,101162.36
2018-09-24T13:47:19.029Z,101161.24
2018-09-24T13:49:52.309Z,101168.20
2018-09-24T13:52:25.291Z,101163.30
2018-09-24T13:54:58.339Z,101164.16
2018-09-24T13:57:31.886Z,101164.20
2018-09-24T14:00:04.907Z,101160.50
2018-09-24T14:05:02.879Z,101158.91
2018-09-24T14:07:35.961Z,101158.59
2018-09-24T14:10:09.293Z,101153.16
2018-09-24T14:12:42.326Z,101151.01
2018-09-24T14:15:15.549Z,101145.73
2018-09-24T14:17:48.541Z,101141.45
2018-09-24T14:20:21.623Z,101148.78
2018-09-24T14:22:54.904Z,101150.65
2018-09-24T14:25:27.984Z,101152.87
2018-09-24T14:28:01.180Z,101161.06
2018-09-24T14:30:34.256Z,101163.17
2018-09-24T14:33:07.261Z,101170.56
2018-09-24T14:35:40.554Z,101175.31
2018-09-24T14:38:13.637Z,101185.87
2018-09-24T14:40:46.748Z,101196.95
2018-09-24T14:43:19.728Z,101194.80
2018-09-24T14:45:52.948Z,101194.11
2018-09-24T14:48:26.123Z,101195.70
2018-09-24T14:50:59.104Z,101183.77
2018-09-24T14:53:32.061Z,101177.81
2018-09-24T14:56:05.233Z,101172.86
2018-09-24T14:58:38.257Z,101172.92
2018-09-24T15:01:11.461Z,101169.11
2018-09-24T15:03:44.618Z,101171.41
2018-09-24T15:06:17.630Z,101175.64
2018-09-24T15:08:51.110Z,101171.34
2018-09-24T15:11:24.224Z,101176.04
2018-09-24T15:13:57.307Z,101181.48
2018-09-24T15:16:30.306Z,101180.40
2018-09-24T15:19:03.432Z,101180.24
2018-09-24T15:21:36.520Z,101177.13
2018-09-24T15:24:09.836Z,101182.19
2018-09-24T15:26:42.875Z,101173.33
2018-09-24T15:29:16.148Z,101180.68
2018-09-24T15:31:49.272Z,101193.34
2018-09-24T15:34:22.448Z,101190.36
2018-09-24T15:36:55.508Z,101184.58
2018-09-24T15:39:28.805Z,101189.55
2018-09-24T15:42:01.987Z,101191.81
2018-09-24T15:44:35.204Z,101195.61
2018-09-24T15:47:08.273Z,101195.45
2018-09-24T15:49:41.203Z,101194.67
2018-09-24T15:52:14.296Z,101188.55
2018-09-24T15:54:47.514Z,101196.53
2018-09-24T15:57:20.543Z,101194.20
2018-09-24T15:59:53.694Z,101190.90
2018-09-24T16:02:26.841Z,101197.73
2018-09-24T16:04:59.902Z,101196.58
2018-09-24T16:07:33.135Z,101195.03
2018-09-24T16:10:06.171Z,101197.94
2018-09-24T16:12:39.317Z,101192.13
2018-09-24T16:15:12.362Z,101203.86
2018-09-24T16:17:45.437Z,101207.95
2018-09-24T16:20:18.647Z,101213.30
2018-09-24T16:22:51.745Z,101209.67
2018-09-24T16:25:24.755Z,101210.37
2018-09-24T16:27:57.974Z,101200.69
2018-09-24T16:30:31.104Z,101211.16
2018-09-24T16:33:04.278Z,101215.53
2018-09-24T16:35:37.289Z,101219.89
2018-09-24T16:38:10.561Z,101216.42
2018-09-24T16:40:43.739Z,101216.84
2018-09-24T16:43:16.903Z,101220.75
2018-09-24T16:45:50.172Z,101225.61
2018-09-24T16:48:23.380Z,101221.91
2018-09-24T16:50:56.674Z,101231.09
2018-09-24T16:53:29.892Z,101238.25
2018-09-24T16:56:02.943Z,101243.89
2018-09-24T16:58:36.431Z,101240.69
2018-09-24T17:01:09.375Z,101242.95
2018-09-24T17:03:42.620Z,101241.84
2018-09-24T17:06:15.635Z,101245.48
2018-09-24T17:08:48.908Z,101245.60
2018-09-24T17:11:22.052Z,101256.20
2018-09-24T17:13:55.254Z,101252.17
2018-09-24T17:16:28.336Z,101253.55
2018-09-24T17:19:01.561Z,101255.45
2018-09-24T17:21:34.767Z,101256.70
2018-09-24T17:24:07.779Z,101258.53
2018-09-24T17:26:40.968Z,101263.52
2018-09-24T17:29:14.076Z,101261.91
2018-09-24T17:31:47.265Z,101267.69
2018-09-24T17:34:20.330Z,101271.29
2018-09-24T17:36:53.833Z,101275.94
2018-09-24T17:39:27.080Z,101281.89
2018-09-24T17:42:00.180Z,101288.04
2018-09-24T17:44:33.438Z,101283.01
2018-09-24T17:47:06.723Z,101285.11
2018-09-24T17:49:40.024Z,101287.08
2018-09-24T17:52:13.107Z,101284.66
2018-09-24T17:54:46.352Z,101292.48
2018-09-24T17:57:19.371Z,101290.33
2018-09-24T17:59:52.557Z,101297.30
2018-09-24T18:02:25.606Z,101300.02
2018-09-24T18:04:58.726Z,101300.27
2018-09-24T18:07:31.743Z,101307.13
2018-09-24T18:10:04.972Z,101310.65
2018-09-24T18:12:38.019Z,101312.50
2018-09-24T18:15:11.044Z,101319.20
2018-09-24T18:17:44.136Z,101321.77
2018-09-24T18:20:17.201Z,101318.88
2018-09-24T18:22:50.230Z,101335.86
2018-09-24T18:25:23.354Z,101346.03
2018-09-24T18:27:56.653Z,101338.89
2018-09-24T18:30:29.758Z,101344.07
2018-09-24T18:33:02.769Z,101345.66
2018-09-24T18:35:35.940Z,101346.56
2018-09-24T18:38:08.961Z,101351.42
2018-09-24T18:40:42.210Z,101355.16
2018-09-24T18:43:15.294Z,101356.03
2018-09-24T18:45:48.478Z,101351.86
2018-09-24T18:48:21.801Z,101361.14
2018-09-24T18:50:55.012Z,101369.35
2018-09-24T18:53:28.031Z,101362.13
2018-09-24T18:56:01.107Z,101372.63
2018-09-24T18:58:34.190Z,101373.72
2018-09-24T19:01:07.441Z,101381.39
2018-09-24T19:03:40.458Z,101383.09
2018-09-24T19:06:13.645Z,101389.02
2018-09-24T19:08:46.988Z,101383.39
2018-09-24T19:11:27.704Z,101385.39
2018-09-24T19:13:53.334Z,101384.23
2018-09-24T19:16:26.356Z,101386.81
2018-09-24T19:18:59.627Z,101389.02
2018-09-24T19:21:32.665Z,101392.06
2018-09-24T19:24:05.889Z,101392.86
2018-09-24T19:26:38.962Z,101400.84
2018-09-24T19:29:12.163Z,101403.84
2018-09-24T19:31:45.378Z,101398.47
2018-09-24T19:34:18.279Z,101402.06
2018-09-24T19:36:51.360Z,101408.23
2018-09-24T19:39:24.419Z,101401.56
2018-09-24T19:41:57.570Z,101405.22
2018-09-24T19:44:30.816Z,101412.11
2018-09-24T19:47:03.902Z,101408.02
2018-09-24T19:49:37.126Z,101410.56
2018-09-24T19:52:10.265Z,101415.05
2018-09-24T19:54:43.551Z,101414.38
2018-09-24T19:57:18.714Z,101410.17
